sensor_id;sensor_type;location;lat;lon;timestamp;pressure;altitude;pressure_sealevel;temperature;humidity
35226;BME280;21813;49.686;21.766;2023-05-14T00:01:10;98990.31;;;8.01;100.00
35226;BME280;21813;49.686;21.766;2023-05-14T00:03:36;98979.19;;;7.85;100.00
35226;BME280;21813;49.686;21.766;2023-05-14T00:06:05;98988.38;;;7.90;100.00
35226;BME280;21813;49.686;21.766;2023-05-14T00:08:32;98989.19;;;7.91;100.00
35226;BME280;21813;49.686;21.766;2023-05-14T00:10:59;98980.09;;;7.84;100.00
35226;BME280;21813;49.686;21.766;2023-05-14T00:13:25;98987.69;;;7.87;100.00
35226;BME280;21813;49.686;21.766;2023-05-14T00:15:52;98994.28;;;7.92;100.00
35226;BME280;21813;49.686;21.766;2023-05-14T00:18:18;98977.78;;;7.79;100.00
35226;BME280;21813;49.686;21.766;2023-05-14T00:20:44;98985.84;;;7.89;100.00
35226;BME280;21813;49.686;21.766;2023-05-14T00:23:10;98976.38;;;7.74;100.00
35226;BME280;21813;49.686;21.766;2023-05-14T00:25:38;98958.94;;;7.62;100.00
35226;BME280;21813;49.686;21.766;2023-05-14T00:28:04;98987.59;;;7.74;100.00
35226;BME280;21813;49.686;21.766;2023-05-14T00:30:31;98986.94;;;7.71;100.00
35226;BME280;21813;49.686;21.766;2023-05-14T00:32:57;98951.31;;;7.59;100.00
35226;BME280;21813;49.686;21.766;2023-05-14T00:35:24;98988.78;;;7.69;100.00
35226;BME280;21813;49.686;21.766;2023-05-14T00:37:50;98958.13;;;7.45;100.00
35226;BME280;21813;49.686;21.766;2023-05-14T00:40:17;98989.50;;;7.57;100.00
35226;BME280;21813;49.686;21.766;2023-05-14T00:42:42;98984.66;;;7.50;100.00
35226;BME280;21813;49.686;21.766;2023-05-14T00:45:09;98975.81;;;7.39;100.00
35226;BME280;21813;49.686;21.766;2023-05-14T00:47:35;98964.97;;;7.32;100.00
35226;BME280;21813;49.686;21.766;2023-05-14T00:50:02;98969.22;;;7.33;100.00
35226;BME280;21813;49.686;21.766;2023-05-14T00:52:29;98969.97;;;7.35;100.00
35226;BME280;21813;49.686;21.766;2023-05-14T00:54:55;98966.63;;;7.33;100.00
35226;BME280;21813;49.686;21.766;2023-05-14T00:57:22;98966.81;;;7.30;100.00
35226;BME280;21813;49.686;21.766;2023-05-14T00:59:48;98958.47;;;7.25;100.00
35226;BME280;21813;49.686;21.766;2023-05-14T01:02:14;98942.69;;;7.14;100.00
35226;BME280;21813;49.686;21.766;2023-05-14T01:04:43;98930.75;;;7.12;100.00
35226;BME280;21813;49.686;21.766;2023-05-14T01:07:20;98963.38;;;7.30;100.00
35226;BME280;21813;49.686;21.766;2023-05-14T01:09:58;98966.97;;;7.27;100.00
35226;BME280;21813;49.686;21.766;2023-05-14T01:12:46;98963.66;;;7.25;100.00
35226;BME280;21813;49.686;21.766;2023-05-14T01:15:23;98959.91;;;7.15;100.00
35226;BME280;21813;49.686;21.766;2023-05-14T01:18:03;98940.78;;;7.02;100.00
35226;BME280;21813;49.686;21.766;2023-05-14T01:20:29;98929.59;;;7.01;100.00
35226;BME280;21813;49.686;21.766;2023-05-14T01:22:55;98963.81;;;7.22;100.00
35226;BME280;21813;49.686;21.766;2023-05-14T01:25:21;98966.25;;;7.25;100.00
35226;BME280;21813;49.686;21.766;2023-05-14T01:32:58;98918.94;;;7.06;100.00
35226;BME280;21813;49.686;21.766;2023-05-14T01:35:28;98953.09;;;7.28;100.00
35226;BME280;21813;49.686;21.766;2023-05-14T01:37:58;98961.53;;;7.32;100.00
35226;BME280;21813;49.686;21.766;2023-05-14T01:40:24;98936.75;;;7.12;100.00
35226;BME280;21813;49.686;21.766;2023-05-14T01:42:52;98962.69;;;7.26;100.00
35226;BME280;21813;49.686;21.766;2023-05-14T01:45:20;98936.19;;;7.07;100.00
35226;BME280;21813;49.686;21.766;2023-05-14T01:47:46;98941.09;;;7.12;100.00
35226;BME280;21813;49.686;21.766;2023-05-14T01:50:11;98947.69;;;7.17;100.00
35226;BME280;21813;49.686;21.766;2023-05-14T01:52:38;98966.25;;;7.25;100.00
35226;BME280;21813;49.686;21.766;2023-05-14T01:55:04;98963.34;;;7.16;100.00
35226;BME280;21813;49.686;21.766;2023-05-14T01:57:32;98946.28;;;7.12;100.00
35226;BME280;21813;49.686;21.766;2023-05-14T01:59:57;98942.84;;;7.11;100.00
35226;BME280;21813;49.686;21.766;2023-05-14T02:02:24;98968.91;;;7.24;100.00
35226;BME280;21813;49.686;21.766;2023-05-14T02:04:50;98941.44;;;7.05;100.00
35226;BME280;21813;49.686;21.766;2023-05-14T02:07:16;98969.81;;;7.23;100.00
35226;BME280;21813;49.686;21.766;2023-05-14T02:09:41;98950.53;;;7.13;100.00
35226;BME280;21813;49.686;21.766;2023-05-14T02:12:09;98942.94;;;7.09;100.00
35226;BME280;21813;49.686;21.766;2023-05-14T02:14:36;98941.94;;;7.12;100.00
35226;BME280;21813;49.686;21.766;2023-05-14T02:17:02;98944.53;;;7.12;100.00
35226;BME280;21813;49.686;21.766;2023-05-14T02:19:29;98938.28;;;7.00;100.00
35226;BME280;21813;49.686;21.766;2023-05-14T02:21:57;98928.56;;;7.04;100.00
35226;BME280;21813;49.686;21.766;2023-05-14T02:24:23;98946.38;;;7.10;100.00
35226;BME280;21813;49.686;21.766;2023-05-14T02:26:50;98959.66;;;7.20;100.00
35226;BME280;21813;49.686;21.766;2023-05-14T02:29:16;98957.97;;;7.19;100.00
35226;BME280;21813;49.686;21.766;2023-05-14T02:31:42;98947.94;;;7.13;100.00
35226;BME280;21813;49.686;21.766;2023-05-14T02:34:08;98950.25;;;7.17;100.00
35226;BME280;21813;49.686;21.766;2023-05-14T02:36:34;98952.84;;;7.17;100.00
35226;BME280;21813;49.686;21.766;2023-05-14T02:39:00;98947.13;;;7.12;100.00
35226;BME280;21813;49.686;21.766;2023-05-14T02:41:27;98919.63;;;6.94;100.00
35226;BME280;21813;49.686;21.766;2023-05-14T02:43:53;98927.06;;;7.00;100.00
35226;BME280;21813;49.686;21.766;2023-05-14T02:46:20;98938.59;;;7.10;100.00
35226;BME280;21813;49.686;21.766;2023-05-14T02:48:46;98949.59;;;7.14;100.00
35226;BME280;21813;49.686;21.766;2023-05-14T02:51:12;98934.09;;;6.98;100.00
35226;BME280;21813;49.686;21.766;2023-05-14T02:53:41;98922.91;;;6.97;100.00
35226;BME280;21813;49.686;21.766;2023-05-14T02:56:08;98947.47;;;7.06;100.00
35226;BME280;21813;49.686;21.766;2023-05-14T02:58:36;98919.88;;;6.89;100.00
35226;BME280;21813;49.686;21.766;2023-05-14T03:01:04;98931.66;;;6.95;100.00
35226;BME280;21813;49.686;21.766;2023-05-14T03:03:30;98935.16;;;6.94;100.00
35226;BME280;21813;49.686;21.766;2023-05-14T03:05:57;98922.41;;;6.91;100.00
35226;BME280;21813;49.686;21.766;2023-05-14T03:08:22;98932.44;;;6.97;100.00
35226;BME280;21813;49.686;21.766;2023-05-14T03:10:49;98924.66;;;6.97;100.00
35226;BME280;21813;49.686;21.766;2023-05-14T03:13:15;98925.38;;;6.99;100.00
35226;BME280;21813;49.686;21.766;2023-05-14T03:15:43;98887.81;;;6.76;100.00
35226;BME280;21813;49.686;21.766;2023-05-14T03:18:09;98900.38;;;6.84;100.00
35226;BME280;21813;49.686;21.766;2023-05-14T03:20:35;98902.94;;;6.84;100.00
35226;BME280;21813;49.686;21.766;2023-05-14T03:23:01;98906.38;;;6.84;100.00
35226;BME280;21813;49.686;21.766;2023-05-14T03:25:28;98897.66;;;6.85;100.00
35226;BME280;21813;49.686;21.766;2023-05-14T03:27:54;98919.56;;;6.95;100.00
35226;BME280;21813;49.686;21.766;2023-05-14T03:30:21;98907.69;;;6.91;100.00
35226;BME280;21813;49.686;21.766;2023-05-14T03:32:46;98911.84;;;6.94;100.00
35226;BME280;21813;49.686;21.766;2023-05-14T03:35:13;98917.63;;;6.99;100.00
35226;BME280;21813;49.686;21.766;2023-05-14T03:37:39;98906.59;;;6.95;100.00
35226;BME280;21813;49.686;21.766;2023-05-14T03:40:06;98925.63;;;7.10;100.00
35226;BME280;21813;49.686;21.766;2023-05-14T03:42:31;98923.03;;;7.10;100.00
35226;BME280;21813;49.686;21.766;2023-05-14T03:44:58;98920.38;;;7.12;100.00
35226;BME280;21813;49.686;21.766;2023-05-14T03:47:24;98911.00;;;7.09;100.00
35226;BME280;21813;49.686;21.766;2023-05-14T03:49:51;98892.28;;;7.04;100.00
35226;BME280;21813;49.686;21.766;2023-05-14T03:52:17;98889.69;;;7.04;100.00
35226;BME280;21813;49.686;21.766;2023-05-14T03:54:44;98920.69;;;7.21;100.00
35226;BME280;21813;49.686;21.766;2023-05-14T03:57:09;98926.78;;;7.20;100.00
35226;BME280;21813;49.686;21.766;2023-05-14T03:59:47;98919.53;;;7.11;100.00
35226;BME280;21813;49.686;21.766;2023-05-14T04:02:13;98910.91;;;7.10;100.00
35226;BME280;21813;49.686;21.766;2023-05-14T04:04:39;98924.00;;;7.23;100.00
35226;BME280;21813;49.686;21.766;2023-05-14T04:07:10;98915.31;;;7.24;100.00
35226;BME280;21813;49.686;21.766;2023-05-14T04:09:38;98927.94;;;7.30;100.00
35226;BME280;21813;49.686;21.766;2023-05-14T04:12:04;98929.75;;;7.28;100.00
35226;BME280;21813;49.686;21.766;2023-05-14T04:14:34;98930.41;;;7.32;100.00
35226;BME280;21813;49.686;21.766;2023-05-14T04:17:00;98940.00;;;7.45;100.00
35226;BME280;21813;49.686;21.766;2023-05-14T04:19:27;98939.56;;;7.53;100.00
35226;BME280;21813;49.686;21.766;2023-05-14T04:21:52;98939.88;;;7.63;100.00
35226;BME280;21813;49.686;21.766;2023-05-14T04:24:20;98910.19;;;7.52;100.00
35226;BME280;21813;49.686;21.766;2023-05-14T04:26:45;98920.59;;;7.67;100.00
35226;BME280;21813;49.686;21.766;2023-05-14T04:29:12;98935.06;;;7.85;100.00
35226;BME280;21813;49.686;21.766;2023-05-14T04:31:38;98918.66;;;7.84;100.00
35226;BME280;21813;49.686;21.766;2023-05-14T04:34:05;98929.69;;;8.02;100.00
35226;BME280;21813;49.686;21.766;2023-05-14T04:36:31;98919.66;;;8.10;100.00
35226;BME280;21813;49.686;21.766;2023-05-14T04:38:58;98908.34;;;8.11;100.00
35226;BME280;21813;49.686;21.766;2023-05-14T04:41:23;98924.50;;;8.30;100.00
35226;BME280;21813;49.686;21.766;2023-05-14T04:43:50;98907.81;;;8.34;100.00
35226;BME280;21813;49.686;21.766;2023-05-14T04:46:16;98886.66;;;8.26;100.00
35226;BME280;21813;49.686;21.766;2023-05-14T04:48:43;98886.09;;;8.35;100.00
35226;BME280;21813;49.686;21.766;2023-05-14T04:51:08;98885.53;;;8.45;100.00
35226;BME280;21813;49.686;21.766;2023-05-14T04:53:35;98898.66;;;8.56;100.00
35226;BME280;21813;49.686;21.766;2023-05-14T04:56:01;98892.69;;;8.68;100.00
35226;BME280;21813;49.686;21.766;2023-05-14T04:58:27;98907.13;;;8.86;100.00
35226;BME280;21813;49.686;21.766;2023-05-14T05:00:55;98877.75;;;8.71;100.00
35226;BME280;21813;49.686;21.766;2023-05-14T05:03:22;98900.69;;;8.92;100.00
35226;BME280;21813;49.686;21.766;2023-05-14T05:05:48;98895.75;;;9.01;100.00
35226;BME280;21813;49.686;21.766;2023-05-14T05:08:17;98893.16;;;9.14;100.00
35226;BME280;21813;49.686;21.766;2023-05-14T05:10:42;98873.97;;;9.29;100.00
35226;BME280;21813;49.686;21.766;2023-05-14T05:13:10;98896.88;;;9.87;100.00
35226;BME280;21813;49.686;21.766;2023-05-14T05:15:35;98872.16;;;10.18;100.00
35226;BME280;21813;49.686;21.766;2023-05-14T05:18:02;98880.16;;;10.28;100.00
35226;BME280;21813;49.686;21.766;2023-05-14T05:20:28;98860.19;;;10.15;100.00
35226;BME280;21813;49.686;21.766;2023-05-14T05:22:55;98858.06;;;10.33;99.97
35226;BME280;21813;49.686;21.766;2023-05-14T05:25:21;98878.44;;;10.52;99.94
35226;BME280;21813;49.686;21.766;2023-05-14T05:27:48;98883.66;;;10.52;99.96
35226;BME280;21813;49.686;21.766;2023-05-14T05:30:14;98877.41;;;10.42;99.45
35226;BME280;21813;49.686;21.766;2023-05-14T05:32:41;98883.56;;;10.77;98.89
35226;BME280;21813;49.686;21.766;2023-05-14T05:35:07;98885.84;;;11.17;96.15
35226;BME280;21813;49.686;21.766;2023-05-14T05:37:34;98859.72;;;11.51;93.98
35226;BME280;21813;49.686;21.766;2023-05-14T05:39:59;98860.88;;;11.82;92.11
35226;BME280;21813;49.686;21.766;2023-05-14T05:42:26;98849.94;;;11.77;92.20
35226;BME280;21813;49.686;21.766;2023-05-14T05:44:52;98850.84;;;11.65;92.97
35226;BME280;21813;49.686;21.766;2023-05-14T05:47:19;98857.50;;;11.69;94.16
35226;BME280;21813;49.686;21.766;2023-05-14T05:49:45;98878.41;;;11.80;93.49
35226;BME280;21813;49.686;21.766;2023-05-14T05:52:12;98846.56;;;11.64;92.66
35226;BME280;21813;49.686;21.766;2023-05-14T05:54:37;98877.13;;;11.86;93.19
35226;BME280;21813;49.686;21.766;2023-05-14T05:57:06;98865.50;;;11.79;93.58
35226;BME280;21813;49.686;21.766;2023-05-14T05:59:32;98868.31;;;11.76;94.07
35226;BME280;21813;49.686;21.766;2023-05-14T06:02:02;98877.00;;;11.87;92.58
35226;BME280;21813;49.686;21.766;2023-05-14T06:04:28;98889.25;;;11.87;91.77
35226;BME280;21813;49.686;21.766;2023-05-14T06:06:54;98883.66;;;11.91;93.10
35226;BME280;21813;49.686;21.766;2023-05-14T06:09:20;98878.91;;;11.97;92.43
35226;BME280;21813;49.686;21.766;2023-05-14T06:11:46;98861.00;;;11.92;92.71
35226;BME280;21813;49.686;21.766;2023-05-14T06:14:12;98884.03;;;12.20;91.38
35226;BME280;21813;49.686;21.766;2023-05-14T06:16:38;98870.34;;;12.28;90.33
35226;BME280;21813;49.686;21.766;2023-05-14T06:19:04;98853.94;;;12.26;89.94
35226;BME280;21813;49.686;21.766;2023-05-14T06:21:38;98860.56;;;12.41;89.51
35226;BME280;21813;49.686;21.766;2023-05-14T06:24:10;98855.34;;;12.41;89.31
35226;BME280;21813;49.686;21.766;2023-05-14T06:26:50;98857.69;;;12.55;89.00
35226;BME280;21813;49.686;21.766;2023-05-14T06:29:20;98860.88;;;12.70;88.46
35226;BME280;21813;49.686;21.766;2023-05-14T06:31:48;98840.53;;;12.73;88.55
35226;BME280;21813;49.686;21.766;2023-05-14T06:34:19;98819.94;;;12.80;85.93
35226;BME280;21813;49.686;21.766;2023-05-14T06:36:52;98862.53;;;13.03;86.51
35226;BME280;21813;49.686;21.766;2023-05-14T06:42:05;98854.56;;;13.36;86.49
35226;BME280;21813;49.686;21.766;2023-05-14T06:44:35;98842.53;;;13.54;83.95
35226;BME280;21813;49.686;21.766;2023-05-14T06:47:01;98848.44;;;13.77;83.63
35226;BME280;21813;49.686;21.766;2023-05-14T06:49:27;98840.75;;;13.85;84.27
35226;BME280;21813;49.686;21.766;2023-05-14T06:51:53;98834.47;;;14.07;84.35
35226;BME280;21813;49.686;21.766;2023-05-14T06:54:19;98833.16;;;14.22;81.45
35226;BME280;21813;49.686;21.766;2023-05-14T06:56:45;98824.47;;;14.31;82.16
35226;BME280;21813;49.686;21.766;2023-05-14T06:59:13;98814.47;;;14.46;80.51
35226;BME280;21813;49.686;21.766;2023-05-14T07:01:38;98818.91;;;14.74;79.60
35226;BME280;21813;49.686;21.766;2023-05-14T07:04:05;98816.13;;;14.85;79.23
35226;BME280;21813;49.686;21.766;2023-05-14T07:06:30;98805.94;;;14.92;79.14
35226;BME280;21813;49.686;21.766;2023-05-14T07:08:57;98816.69;;;15.08;77.85
35226;BME280;21813;49.686;21.766;2023-05-14T07:11:23;98809.22;;;15.13;76.72
35226;BME280;21813;49.686;21.766;2023-05-14T07:13:49;98806.19;;;14.98;76.59
35226;BME280;21813;49.686;21.766;2023-05-14T07:16:17;98813.66;;;14.93;77.14
35226;BME280;21813;49.686;21.766;2023-05-14T07:18:44;98813.50;;;14.95;78.61
35226;BME280;21813;49.686;21.766;2023-05-14T07:21:10;98815.47;;;15.02;78.93
35226;BME280;21813;49.686;21.766;2023-05-14T07:23:37;98818.75;;;15.14;76.80
35226;BME280;21813;49.686;21.766;2023-05-14T07:26:05;98822.19;;;15.24;76.60
35226;BME280;21813;49.686;21.766;2023-05-14T07:28:37;98818.44;;;15.27;77.54
35226;BME280;21813;49.686;21.766;2023-05-14T07:31:03;98799.09;;;15.28;76.33
35226;BME280;21813;49.686;21.766;2023-05-14T07:33:36;98812.19;;;15.57;76.66
35226;BME280;21813;49.686;21.766;2023-05-14T07:36:02;98799.69;;;15.68;75.94
35226;BME280;21813;49.686;21.766;2023-05-14T07:38:30;98805.97;;;15.95;73.98
35226;BME280;21813;49.686;21.766;2023-05-14T07:40:56;98804.66;;;16.08;73.76
35226;BME280;21813;49.686;21.766;2023-05-14T07:43:23;98790.72;;;16.25;73.27
35226;BME280;21813;49.686;21.766;2023-05-14T07:45:48;98784.94;;;16.40;71.62
35226;BME280;21813;49.686;21.766;2023-05-14T07:48:14;98794.28;;;16.52;70.51
35226;BME280;21813;49.686;21.766;2023-05-14T07:50:40;98787.88;;;16.64;71.80
35226;BME280;21813;49.686;21.766;2023-05-14T07:53:06;98783.34;;;16.92;69.88
35226;BME280;21813;49.686;21.766;2023-05-14T07:55:31;98782.88;;;16.96;68.54
35226;BME280;21813;49.686;21.766;2023-05-14T07:57:57;98784.06;;;17.02;68.20
35226;BME280;21813;49.686;21.766;2023-05-14T08:00:23;98776.31;;;17.00;68.40
35226;BME280;21813;49.686;21.766;2023-05-14T08:02:49;98777.53;;;17.06;68.31
35226;BME280;21813;49.686;21.766;2023-05-14T08:05:16;98770.19;;;17.17;68.21
35226;BME280;21813;49.686;21.766;2023-05-14T08:07:43;98763.88;;;17.36;66.59
35226;BME280;21813;49.686;21.766;2023-05-14T08:10:09;98760.47;;;17.44;65.20
35226;BME280;21813;49.686;21.766;2023-05-14T08:12:35;98751.06;;;17.67;63.68
35226;BME280;21813;49.686;21.766;2023-05-14T08:15:01;98763.16;;;17.52;63.67
35226;BME280;21813;49.686;21.766;2023-05-14T08:17:27;98761.50;;;17.51;64.64
35226;BME280;21813;49.686;21.766;2023-05-14T08:19:53;98764.00;;;17.52;65.18
35226;BME280;21813;49.686;21.766;2023-05-14T08:22:19;98758.13;;;17.66;64.09
35226;BME280;21813;49.686;21.766;2023-05-14T08:24:44;98753.56;;;17.77;62.02
35226;BME280;21813;49.686;21.766;2023-05-14T08:27:10;98745.91;;;17.99;59.89
35226;BME280;21813;49.686;21.766;2023-05-14T08:29:36;98752.69;;;17.94;61.91
35226;BME280;21813;49.686;21.766;2023-05-14T08:32:02;98745.91;;;17.91;62.18
35226;BME280;21813;49.686;21.766;2023-05-14T08:34:27;98750.66;;;17.88;60.81
35226;BME280;21813;49.686;21.766;2023-05-14T08:36:53;98741.44;;;17.84;62.59
35226;BME280;21813;49.686;21.766;2023-05-14T08:39:19;98747.88;;;17.89;63.77
35226;BME280;21813;49.686;21.766;2023-05-14T08:41:45;98746.22;;;17.88;60.35
35226;BME280;21813;49.686;21.766;2023-05-14T08:46:59;98732.09;;;18.05;61.96
35226;BME280;21813;49.686;21.766;2023-05-14T08:49:42;98730.84;;;18.26;57.69
35226;BME280;21813;49.686;21.766;2023-05-14T08:52:09;98733.50;;;18.42;54.80
35226;BME280;21813;49.686;21.766;2023-05-14T08:54:35;98730.84;;;18.42;54.21
35226;BME280;21813;49.686;21.766;2023-05-14T08:57:02;98734.53;;;18.57;56.73
35226;BME280;21813;49.686;21.766;2023-05-14T08:59:28;98736.53;;;18.71;54.44
35226;BME280;21813;49.686;21.766;2023-05-14T09:01:55;98730.91;;;18.74;56.09
35226;BME280;21813;49.686;21.766;2023-05-14T09:04:23;98729.75;;;18.85;55.20
35226;BME280;21813;49.686;21.766;2023-05-14T09:06:51;98731.22;;;18.87;53.15
35226;BME280;21813;49.686;21.766;2023-05-14T09:09:18;98722.31;;;18.80;53.39
35226;BME280;21813;49.686;21.766;2023-05-14T09:11:48;98733.88;;;18.95;51.90
35226;BME280;21813;49.686;21.766;2023-05-14T09:14:14;98732.34;;;19.17;49.78
35226;BME280;21813;49.686;21.766;2023-05-14T09:16:43;98723.75;;;19.15;50.45
35226;BME280;21813;49.686;21.766;2023-05-14T09:19:11;98712.06;;;19.02;50.70
35226;BME280;21813;49.686;21.766;2023-05-14T09:21:37;98710.59;;;18.99;53.36
35226;BME280;21813;49.686;21.766;2023-05-14T09:24:03;98715.34;;;19.20;52.55
35226;BME280;21813;49.686;21.766;2023-05-14T09:26:32;98721.59;;;19.27;50.99
35226;BME280;21813;49.686;21.766;2023-05-14T09:28:58;98710.38;;;19.25;51.26
35226;BME280;21813;49.686;21.766;2023-05-14T09:31:29;98701.13;;;19.21;52.45
35226;BME280;21813;49.686;21.766;2023-05-14T09:33:56;98708.38;;;19.27;52.85
35226;BME280;21813;49.686;21.766;2023-05-14T09:36:23;98705.41;;;19.30;51.83
35226;BME280;21813;49.686;21.766;2023-05-14T09:38:57;98687.41;;;19.25;50.96
35226;BME280;21813;49.686;21.766;2023-05-14T09:41:23;98692.56;;;19.19;50.34
35226;BME280;21813;49.686;21.766;2023-05-14T09:43:49;98701.13;;;19.21;50.89
35226;BME280;21813;49.686;21.766;2023-05-14T09:46:16;98697.19;;;19.09;50.09
35226;BME280;21813;49.686;21.766;2023-05-14T09:48:42;98681.06;;;18.95;50.24
35226;BME280;21813;49.686;21.766;2023-05-14T09:51:09;98676.75;;;18.94;52.16
35226;BME280;21813;49.686;21.766;2023-05-14T09:53:34;98671.78;;;19.00;52.12
35226;BME280;21813;49.686;21.766;2023-05-14T09:56:00;98679.03;;;19.06;51.72
35226;BME280;21813;49.686;21.766;2023-05-14T09:58:26;98667.47;;;19.07;50.75
35226;BME280;21813;49.686;21.766;2023-05-14T10:00:52;98672.88;;;19.21;51.78
35226;BME280;21813;49.686;21.766;2023-05-14T10:03:19;98673.34;;;19.33;54.10
35226;BME280;21813;49.686;21.766;2023-05-14T10:05:48;98671.66;;;19.40;50.14
35226;BME280;21813;49.686;21.766;2023-05-14T10:08:24;98670.38;;;19.36;49.48
35226;BME280;21813;49.686;21.766;2023-05-14T10:10:53;98661.66;;;19.27;48.80
35226;BME280;21813;49.686;21.766;2023-05-14T10:13:21;98654.38;;;19.21;50.15
35226;BME280;21813;49.686;21.766;2023-05-14T10:15:56;98655.22;;;19.22;51.10
35226;BME280;21813;49.686;21.766;2023-05-14T10:18:23;98658.31;;;19.33;50.86
35226;BME280;21813;49.686;21.766;2023-05-14T10:20:57;98656.69;;;19.32;50.70
35226;BME280;21813;49.686;21.766;2023-05-14T10:23:25;98642.94;;;19.37;50.11
35226;BME280;21813;49.686;21.766;2023-05-14T10:25:52;98644.06;;;19.42;50.22
35226;BME280;21813;49.686;21.766;2023-05-14T10:28:17;98645.19;;;19.56;50.45
35226;BME280;21813;49.686;21.766;2023-05-14T10:30:44;98642.00;;;19.69;48.65
35226;BME280;21813;49.686;21.766;2023-05-14T10:33:12;98649.41;;;19.73;49.24
35226;BME280;21813;49.686;21.766;2023-05-14T10:36:00;98647.84;;;19.87;48.02
35226;BME280;21813;49.686;21.766;2023-05-14T10:38:27;98641.03;;;19.93;47.96
35226;BME280;21813;49.686;21.766;2023-05-14T10:40:59;98637.03;;;19.97;47.24
35226;BME280;21813;49.686;21.766;2023-05-14T10:43:26;98621.81;;;19.99;48.00
35226;BME280;21813;49.686;21.766;2023-05-14T10:45:56;98632.28;;;20.15;48.24
35226;BME280;21813;49.686;21.766;2023-05-14T10:48:23;98623.44;;;20.22;49.03
35226;BME280;21813;49.686;21.766;2023-05-14T10:50:50;98620.63;;;20.24;48.15
35226;BME280;21813;49.686;21.766;2023-05-14T10:53:16;98610.59;;;20.19;46.47
35226;BME280;21813;49.686;21.766;2023-05-14T10:55:43;98599.56;;;20.08;47.90
35226;BME280;21813;49.686;21.766;2023-05-14T10:58:11;98596.28;;;20.06;46.81
35226;BME280;21813;49.686;21.766;2023-05-14T11:00:38;98605.16;;;20.13;48.16
35226;BME280;21813;49.686;21.766;2023-05-14T11:03:05;98581.72;;;20.10;48.26
35226;BME280;21813;49.686;21.766;2023-05-14T11:05:32;98593.47;;;20.30;48.17
35226;BME280;21813;49.686;21.766;2023-05-14T11:08:03;98576.09;;;20.27;44.33
35226;BME280;21813;49.686;21.766;2023-05-14T11:10:31;98581.09;;;20.45;46.22
35226;BME280;21813;49.686;21.766;2023-05-14T11:12:56;98565.22;;;20.45;44.51
35226;BME280;21813;49.686;21.766;2023-05-14T11:15:24;98562.19;;;20.34;45.63
35226;BME280;21813;49.686;21.766;2023-05-14T11:17:53;98568.81;;;20.29;45.35
35226;BME280;21813;49.686;21.766;2023-05-14T11:20:19;98563.53;;;20.29;45.89
35226;BME280;21813;49.686;21.766;2023-05-14T11:22:46;98564.28;;;20.38;45.39
35226;BME280;21813;49.686;21.766;2023-05-14T11:25:13;98558.63;;;20.41;46.98
35226;BME280;21813;49.686;21.766;2023-05-14T11:27:41;98545.31;;;20.49;46.44
35226;BME280;21813;49.686;21.766;2023-05-14T11:30:16;98538.56;;;20.61;44.82
35226;BME280;21813;49.686;21.766;2023-05-14T11:32:44;98546.44;;;20.69;44.22
35226;BME280;21813;49.686;21.766;2023-05-14T11:35:11;98543.13;;;20.67;44.18
35226;BME280;21813;49.686;21.766;2023-05-14T11:37:37;98537.47;;;20.70;46.72
35226;BME280;21813;49.686;21.766;2023-05-14T11:40:07;98531.81;;;20.73;44.67
35226;BME280;21813;49.686;21.766;2023-05-14T11:42:35;98527.88;;;20.84;44.96
35226;BME280;21813;49.686;21.766;2023-05-14T11:45:01;98525.56;;;20.96;44.27
35226;BME280;21813;49.686;21.766;2023-05-14T11:47:28;98520.00;;;20.91;43.07
35226;BME280;21813;49.686;21.766;2023-05-14T11:49:54;98525.25;;;20.84;42.91
35226;BME280;21813;49.686;21.766;2023-05-14T11:52:20;98526.41;;;20.82;43.74
35226;BME280;21813;49.686;21.766;2023-05-14T11:54:46;98530.34;;;20.86;43.74
35226;BME280;21813;49.686;21.766;2023-05-14T11:57:19;98527.69;;;21.00;44.83
35226;BME280;21813;49.686;21.766;2023-05-14T11:59:47;98522.56;;;21.13;44.00
35226;BME280;21813;49.686;21.766;2023-05-14T12:02:16;98514.53;;;21.22;43.42
35226;BME280;21813;49.686;21.766;2023-05-14T12:04:43;98521.44;;;21.23;42.43
35226;BME280;21813;49.686;21.766;2023-05-14T12:07:12;98522.84;;;21.04;43.25
35226;BME280;21813;49.686;21.766;2023-05-14T12:09:40;98528.34;;;20.88;42.84
35226;BME280;21813;49.686;21.766;2023-05-14T12:12:11;98512.00;;;20.69;44.61
35226;BME280;21813;49.686;21.766;2023-05-14T12:14:41;98515.00;;;20.66;45.04
35226;BME280;21813;49.686;21.766;2023-05-14T12:17:18;98504.69;;;20.57;44.29
35226;BME280;21813;49.686;21.766;2023-05-14T12:19:46;98490.72;;;20.48;44.89
35226;BME280;21813;49.686;21.766;2023-05-14T12:22:14;98498.66;;;20.48;45.18
35226;BME280;21813;49.686;21.766;2023-05-14T12:24:42;98477.38;;;20.42;45.64
35226;BME280;21813;49.686;21.766;2023-05-14T12:27:09;98485.88;;;20.52;45.16
35226;BME280;21813;49.686;21.766;2023-05-14T12:29:37;98484.31;;;20.43;44.89
35226;BME280;21813;49.686;21.766;2023-05-14T12:32:07;98476.81;;;20.46;45.35
35226;BME280;21813;49.686;21.766;2023-05-14T12:34:37;98469.06;;;20.45;44.74
35226;BME280;21813;49.686;21.766;2023-05-14T12:37:05;98460.84;;;20.40;45.13
35226;BME280;21813;49.686;21.766;2023-05-14T12:39:32;98465.59;;;20.44;46.22
35226;BME280;21813;49.686;21.766;2023-05-14T12:41:58;98461.59;;;20.48;46.00
35226;BME280;21813;49.686;21.766;2023-05-14T12:44:24;98450.06;;;20.56;46.31
35226;BME280;21813;49.686;21.766;2023-05-14T12:46:49;98440.75;;;20.60;46.32
35226;BME280;21813;49.686;21.766;2023-05-14T12:49:15;98418.84;;;20.66;45.50
35226;BME280;21813;49.686;21.766;2023-05-14T12:51:41;98442.28;;;20.84;44.98
35226;BME280;21813;49.686;21.766;2023-05-14T12:54:07;98439.47;;;20.85;43.68
35226;BME280;21813;49.686;21.766;2023-05-14T12:56:37;98431.25;;;20.80;43.97
35226;BME280;21813;49.686;21.766;2023-05-14T12:59:03;98431.03;;;20.82;44.99
35226;BME280;21813;49.686;21.766;2023-05-14T13:01:29;98428.53;;;20.95;44.88